createdAt,value
2017-12-31T00:00:22.781Z,969.01
2017-12-31T00:01:22.696Z,969.02
2017-12-31T00:02:22.633Z,969.02
2017-12-31T00:03:22.532Z,969.03
2017-12-31T00:04:22.459Z,969.08
2017-12-31T00:05:22.391Z,969.10
2017-12-31T00:06:22.300Z,969.08
2017-12-31T00:07:22.216Z,969.08
2017-12-31T00:08:22.143Z,969.12
2017-12-31T00:09:22.058Z,969.11
2017-12-31T00:10:21.976Z,969.13
2017-12-31T00:11:21.902Z,969.15
2017-12-31T00:12:21.818Z,969.15
2017-12-31T00:13:21.746Z,969.16
2017-12-31T00:14:21.665Z,969.17
2017-12-31T00:15:21.583Z,969.23
2017-12-31T00:16:21.501Z,969.25
2017-12-31T00:17:21.424Z,969.28
2017-12-31T00:18:21.334Z,969.31
2017-12-31T00:19:21.271Z,969.27
2017-12-31T00:20:21.204Z,969.32
2017-12-31T00:21:21.103Z,969.34
2017-12-31T00:22:21.024Z,969.32
2017-12-31T00:23:20.950Z,969.35
2017-12-31T00:24:20.869Z,969.42
2017-12-31T00:25:20.791Z,969.37
2017-12-31T00:26:20.701Z,969.39
2017-12-31T00:27:20.644Z,969.39
2017-12-31T00:28:20.550Z,969.43
2017-12-31T00:29:20.482Z,969.44
2017-12-31T00:30:20.397Z,969.44
2017-12-31T00:31:20.325Z,969.49
2017-12-31T00:32:20.259Z,969.48
2017-12-31T00:33:20.153Z,969.47
2017-12-31T00:34:20.093Z,969.46
2017-12-31T00:35:20.005Z,969.45
2017-12-31T00:36:19.935Z,969.42
2017-12-31T00:37:19.852Z,969.44
2017-12-31T00:38:19.752Z,969.45
2017-12-31T00:39:19.687Z,969.49
2017-12-31T00:40:19.607Z,969.51
2017-12-31T00:41:19.527Z,969.55
2017-12-31T00:42:19.445Z,969.53
2017-12-31T00:43:19.373Z,969.54
2017-12-31T00:44:19.313Z,969.57
2017-12-31T00:45:19.208Z,969.56
2017-12-31T00:46:19.248Z,969.61
2017-12-31T00:47:19.055Z,969.62
2017-12-31T00:48:18.972Z,969.66
2017-12-31T00:49:18.917Z,969.60
2017-12-31T00:50:18.815Z,969.60
2017-12-31T00:51:18.744Z,969.62
2017-12-31T00:52:18.650Z,969.64
2017-12-31T00:53:18.569Z,969.69
2017-12-31T00:54:18.521Z,969.64
2017-12-31T00:55:18.428Z,969.63
2017-12-31T00:56:18.353Z,969.66
2017-12-31T00:57:18.268Z,969.66
2017-12-31T00:58:18.201Z,969.68
2017-12-31T00:59:18.113Z,969.69
2017-12-31T01:00:18.040Z,969.66
2017-12-31T01:01:17.974Z,969.68
2017-12-31T01:02:17.863Z,969.63
2017-12-31T01:03:17.783Z,969.63
2017-12-31T01:04:17.714Z,969.66
2017-12-31T01:05:17.620Z,969.66
2017-12-31T01:06:17.548Z,969.70
2017-12-31T01:07:17.467Z,969.70
2017-12-31T01:08:17.422Z,969.72
2017-12-31T01:09:17.300Z,969.66
2017-12-31T01:10:17.242Z,969.68
2017-12-31T01:11:17.144Z,969.69
2017-12-31T01:12:17.074Z,969.72
2017-12-31T01:13:16.990Z,969.76
2017-12-31T01:14:16.927Z,969.70
2017-12-31T01:15:16.859Z,969.76
2017-12-31T01:16:16.758Z,969.82
2017-12-31T01:17:16.669Z,969.81
2017-12-31T01:18:16.602Z,969.83
2017-12-31T01:19:16.528Z,969.80
2017-12-31T01:20:16.452Z,969.76
2017-12-31T01:21:16.357Z,969.78
2017-12-31T01:22:16.290Z,969.78
2017-12-31T01:23:16.203Z,969.83
2017-12-31T01:24:16.133Z,969.83
2017-12-31T01:25:16.043Z,969.87
2017-12-31T01:26:15.962Z,969.87
2017-12-31T01:27:15.889Z,969.88
2017-12-31T01:28:15.823Z,969.87
2017-12-31T01:29:15.756Z,969.87
2017-12-31T01:30:15.663Z,969.86
2017-12-31T01:31:15.564Z,969.85
2017-12-31T01:32:15.501Z,969.83
2017-12-31T01:33:15.405Z,969.89
2017-12-31T01:34:15.340Z,969.92
2017-12-31T01:35:15.253Z,969.91
2017-12-31T01:36:15.178Z,969.91
2017-12-31T01:37:15.098Z,969.97
2017-12-31T01:38:15.040Z,969.96
2017-12-31T01:39:14.946Z,969.97
2017-12-31T01:40:14.882Z,969.98
2017-12-31T01:41:14.784Z,970.00
2017-12-31T01:42:14.704Z,969.99
2017-12-31T01:43:14.615Z,970.02
2017-12-31T01:44:14.549Z,970.05
2017-12-31T01:45:14.471Z,970.00
2017-12-31T01:46:14.392Z,970.04
2017-12-31T01:47:14.307Z,970.06
2017-12-31T01:48:14.253Z,970.00
2017-12-31T01:49:14.155Z,970.03
2017-12-31T01:50:14.080Z,970.07
2017-12-31T01:51:14.001Z,970.11
2017-12-31T01:52:13.919Z,970.14
2017-12-31T01:53:13.829Z,970.09
2017-12-31T01:54:13.760Z,970.05
2017-12-31T01:55:13.673Z,970.04
2017-12-31T01:56:14.618Z,970.05
2017-12-31T01:57:13.511Z,970.03
2017-12-31T01:58:13.454Z,970.09
2017-12-31T01:59:13.359Z,970.07
2017-12-31T02:00:13.280Z,970.00
2017-12-31T02:01:13.213Z,970.08
2017-12-31T02:02:13.132Z,970.08
2017-12-31T02:03:13.049Z,970.10
2017-12-31T02:04:13.003Z,970.07
2017-12-31T02:05:12.887Z,969.99
2017-12-31T02:06:12.836Z,970.08
2017-12-31T02:07:12.734Z,970.02
2017-12-31T02:08:12.679Z,970.01
2017-12-31T02:09:12.608Z,970.02
2017-12-31T02:10:12.502Z,969.97
2017-12-31T02:11:12.418Z,969.98
2017-12-31T02:12:12.350Z,970.03
2017-12-31T02:13:12.252Z,970.00
2017-12-31T02:14:12.189Z,970.07
2017-12-31T02:15:12.107Z,970.08
2017-12-31T02:16:12.029Z,970.02
2017-12-31T02:17:11.942Z,970.04
2017-12-31T02:18:11.883Z,970.01
2017-12-31T02:19:11.800Z,970.02
2017-12-31T02:20:11.731Z,970.03
2017-12-31T02:21:11.647Z,970.07
2017-12-31T02:22:11.565Z,970.01
2017-12-31T02:23:11.466Z,970.03
2017-12-31T02:24:12.401Z,970.07
2017-12-31T02:25:11.301Z,970.05
2017-12-31T02:26:11.235Z,970.00
2017-12-31T02:27:11.157Z,970.05
2017-12-31T02:28:11.093Z,970.06
2017-12-31T02:29:11.010Z,970.10
2017-12-31T02:30:10.927Z,970.08
2017-12-31T02:31:10.830Z,970.06
2017-12-31T02:32:10.776Z,970.09
2017-12-31T02:33:10.700Z,970.12
2017-12-31T02:34:10.622Z,970.14
2017-12-31T02:35:10.530Z,970.11
2017-12-31T02:36:10.463Z,970.18
2017-12-31T02:37:10.371Z,970.17
2017-12-31T02:38:10.306Z,970.13
2017-12-31T02:39:10.210Z,970.19
2017-12-31T02:40:10.143Z,970.18
2017-12-31T02:41:10.051Z,970.23
2017-12-31T02:42:09.994Z,970.22
2017-12-31T02:43:09.890Z,970.27
2017-12-31T02:44:09.822Z,970.24
2017-12-31T02:45:09.726Z,970.20
2017-12-31T02:46:09.724Z,970.30
2017-12-31T02:47:09.582Z,970.25
2017-12-31T02:48:09.507Z,970.31
2017-12-31T02:49:09.433Z,970.30
2017-12-31T02:50:09.359Z,970.25
2017-12-31T02:51:09.270Z,970.32
2017-12-31T02:52:09.200Z,970.33
2017-12-31T02:53:09.125Z,970.34
2017-12-31T02:54:09.034Z,970.41
2017-12-31T02:55:08.943Z,970.41
2017-12-31T02:56:08.875Z,970.41
2017-12-31T02:57:08.793Z,970.34
2017-12-31T02:58:08.714Z,970.36
2017-12-31T02:59:08.643Z,970.34
2017-12-31T03:00:08.564Z,970.40
2017-12-31T03:01:08.485Z,970.33
2017-12-31T03:02:08.405Z,970.36
2017-12-31T03:03:08.323Z,970.36
2017-12-31T03:04:08.256Z,970.42
2017-12-31T03:05:08.164Z,970.46
2017-12-31T03:06:08.099Z,970.47
2017-12-31T03:07:08.002Z,970.47
2017-12-31T03:08:07.942Z,970.49
2017-12-31T03:09:07.846Z,970.46
2017-12-31T03:10:07.791Z,970.49
2017-12-31T03:11:07.696Z,970.48
2017-12-31T03:12:07.630Z,970.45
2017-12-31T03:13:07.545Z,970.42
2017-12-31T03:14:07.486Z,970.45
2017-12-31T03:15:07.392Z,970.52
2017-12-31T03:16:07.309Z,970.45
2017-12-31T03:17:07.224Z,970.51
2017-12-31T03:18:07.168Z,970.44
2017-12-31T03:19:07.072Z,970.52
2017-12-31T03:20:06.998Z,970.47
2017-12-31T03:21:06.911Z,970.48
2017-12-31T03:22:06.838Z,970.43
2017-12-31T03:23:06.763Z,970.48
2017-12-31T03:24:06.693Z,970.44
2017-12-31T03:25:06.589Z,970.44
2017-12-31T03:26:06.525Z,970.46
2017-12-31T03:27:06.442Z,970.47
2017-12-31T03:28:06.374Z,970.47
2017-12-31T03:29:06.296Z,970.53
2017-12-31T03:30:06.211Z,970.51
2017-12-31T03:31:06.133Z,970.53
2017-12-31T03:32:06.060Z,970.55
2017-12-31T03:33:05.975Z,970.45
2017-12-31T03:34:05.920Z,970.48
2017-12-31T03:35:05.810Z,970.50
2017-12-31T03:36:05.750Z,970.47
2017-12-31T03:37:05.664Z,970.44
2017-12-31T03:38:05.586Z,970.53
2017-12-31T03:39:05.500Z,970.54
2017-12-31T03:40:05.426Z,970.46
2017-12-31T03:41:05.347Z,970.46
2017-12-31T03:42:05.300Z,970.51
2017-12-31T03:43:05.183Z,970.49
2017-12-31T03:44:05.125Z,970.58
2017-12-31T03:45:05.030Z,970.46
2017-12-31T03:46:04.963Z,970.44
2017-12-31T03:47:04.880Z,970.50
2017-12-31T03:48:04.813Z,970.46
2017-12-31T03:49:04.721Z,970.49
2017-12-31T03:50:04.657Z,970.52
2017-12-31T03:51:04.579Z,970.51
2017-12-31T03:52:04.494Z,970.47
2017-12-31T03:53:04.405Z,970.47
2017-12-31T03:54:04.346Z,970.45
2017-12-31T03:55:04.264Z,970.40
2017-12-31T03:56:04.230Z,970.45
2017-12-31T03:57:04.094Z,970.47
2017-12-31T03:58:04.023Z,970.43
2017-12-31T03:59:03.949Z,970.46
2017-12-31T04:00:03.873Z,970.37
2017-12-31T04:01:03.787Z,970.41
2017-12-31T04:02:03.720Z,970.44
2017-12-31T04:03:03.644Z,970.44
2017-12-31T04:04:03.551Z,970.44
2017-12-31T04:05:03.465Z,970.44
2017-12-31T04:06:03.414Z,970.50
2017-12-31T04:07:03.318Z,970.46
2017-12-31T04:08:03.260Z,970.46
2017-12-31T04:09:03.181Z,970.42
2017-12-31T04:10:03.113Z,970.42
2017-12-31T04:11:03.019Z,970.40
2017-12-31T04:12:02.936Z,970.42
2017-12-31T04:13:02.846Z,970.41
2017-12-31T04:14:02.781Z,970.38
2017-12-31T04:15:02.693Z,970.42
2017-12-31T04:16:02.612Z,970.37
2017-12-31T04:17:02.555Z,970.42
2017-12-31T04:18:02.461Z,970.34
2017-12-31T04:19:02.370Z,970.35
2017-12-31T04:20:02.308Z,970.34
2017-12-31T04:21:02.213Z,970.34
2017-12-31T04:22:02.159Z,970.35
2017-12-31T04:23:02.065Z,970.42
2017-12-31T04:24:02.011Z,970.41
2017-12-31T04:25:01.910Z,970.40
2017-12-31T04:26:01.866Z,970.38
2017-12-31T04:27:01.760Z,970.39
2017-12-31T04:28:01.709Z,970.45
2017-12-31T04:29:01.615Z,970.49
2017-12-31T04:30:01.525Z,970.46
2017-12-31T04:31:01.445Z,970.47
2017-12-31T04:32:01.364Z,970.52
2017-12-31T04:33:01.278Z,970.43
2017-12-31T04:34:01.216Z,970.44
2017-12-31T04:35:01.151Z,970.48
2017-12-31T04:36:01.056Z,970.47
2017-12-31T04:37:00.989Z,970.49
2017-12-31T04:38:00.904Z,970.53
2017-12-31T04:39:00.832Z,970.58
2017-12-31T04:40:00.766Z,970.57
2017-12-31T04:41:00.667Z,970.57
2017-12-31T04:42:00.585Z,970.57
2017-12-31T04:43:00.499Z,970.58
2017-12-31T04:44:00.453Z,970.53
2017-12-31T04:45:00.360Z,970.58
2017-12-31T04:46:00.305Z,970.59
2017-12-31T04:47:00.198Z,970.60
2017-12-31T04:48:00.140Z,970.61
2017-12-31T04:49:00.043Z,970.66
2017-12-31T04:49:59.968Z,970.60
2017-12-31T04:50:59.882Z,970.65
2017-12-31T04:51:59.815Z,970.65
2017-12-31T04:52:59.720Z,970.67
2017-12-31T04:53:59.650Z,970.72
2017-12-31T04:54:59.574Z,970.70
2017-12-31T04:55:59.494Z,970.65
2017-12-31T04:56:59.412Z,970.68
2017-12-31T04:57:59.356Z,970.63
2017-12-31T04:58:59.264Z,970.73
2017-12-31T04:59:59.185Z,970.69
2017-12-31T05:00:59.099Z,970.65
2017-12-31T05:01:59.056Z,970.67
2017-12-31T05:02:58.951Z,970.70
2017-12-31T05:03:58.865Z,970.76
2017-12-31T05:04:58.781Z,970.73
2017-12-31T05:05:58.719Z,970.73
2017-12-31T05:06:58.646Z,970.72
2017-12-31T05:07:58.567Z,970.78
2017-12-31T05:08:58.477Z,970.76
2017-12-31T05:09:58.403Z,970.74
2017-12-31T05:10:58.314Z,970.80
2017-12-31T05:11:58.253Z,970.78
2017-12-31T05:12:58.163Z,970.79
2017-12-31T05:13:58.099Z,970.85
2017-12-31T05:14:58.020Z,970.73
2017-12-31T05:15:57.944Z,970.80
2017-12-31T05:16:57.857Z,970.79
2017-12-31T05:17:57.790Z,970.81
2017-12-31T05:18:57.702Z,970.81
2017-12-31T05:19:57.626Z,970.82
2017-12-31T05:20:57.549Z,970.84
2017-12-31T05:21:57.469Z,970.87
2017-12-31T05:22:57.381Z,970.92
2017-12-31T05:23:57.325Z,970.93
2017-12-31T05:24:57.233Z,970.89
2017-12-31T05:25:57.162Z,970.95
2017-12-31T05:26:57.079Z,970.98
2017-12-31T05:27:57.000Z,971.05
2017-12-31T05:28:56.920Z,970.96
2017-12-31T05:29:56.847Z,970.95
2017-12-31T05:30:56.752Z,970.96
2017-12-31T05:31:56.698Z,970.99
2017-12-31T05:32:56.603Z,971.10
2017-12-31T05:33:56.529Z,971.15
2017-12-31T05:34:56.436Z,971.15
2017-12-31T05:35:56.372Z,971.17
2017-12-31T05:36:56.286Z,971.09
2017-12-31T05:37:56.208Z,971.12
2017-12-31T05:38:56.139Z,971.17
2017-12-31T05:39:56.070Z,971.10
2017-12-31T05:40:56.023Z,971.12
2017-12-31T05:41:55.929Z,971.14
2017-12-31T05:42:55.814Z,971.27
2017-12-31T05:43:55.758Z,971.19
2017-12-31T05:44:55.677Z,971.21
2017-12-31T05:45:55.595Z,971.23
2017-12-31T05:46:55.505Z,971.28
2017-12-31T05:47:55.446Z,971.27
2017-12-31T05:48:55.352Z,971.34
2017-12-31T05:49:55.273Z,971.33
2017-12-31T05:50:55.192Z,971.32
2017-12-31T05:51:55.158Z,971.36
2017-12-31T05:52:55.060Z,971.38
2017-12-31T05:53:54.980Z,971.37
2017-12-31T05:54:54.880Z,971.34
2017-12-31T05:55:54.805Z,971.37
2017-12-31T05:56:54.730Z,971.37
2017-12-31T05:57:54.646Z,971.36
2017-12-31T05:58:54.564Z,971.38
2017-12-31T05:59:54.489Z,971.37
2017-12-31T06:00:54.407Z,971.35
2017-12-31T06:01:54.338Z,971.42
2017-12-31T06:02:54.268Z,971.40
2017-12-31T06:03:54.186Z,971.43
2017-12-31T06:04:54.090Z,971.36
2017-12-31T06:05:54.040Z,971.37
2017-12-31T06:06:53.962Z,971.41
2017-12-31T06:07:53.870Z,971.47
2017-12-31T06:08:53.790Z,971.46
2017-12-31T06:09:53.705Z,971.46
2017-12-31T06:10:53.627Z,971.44
2017-12-31T06:11:53.564Z,971.46
2017-12-31T06:12:53.473Z,971.51
2017-12-31T06:13:53.399Z,971.49
2017-12-31T06:14:53.318Z,971.47
2017-12-31T06:15:53.255Z,971.47
2017-12-31T06:16:53.180Z,971.50
2017-12-31T06:17:53.096Z,971.49
2017-12-31T06:18:53.012Z,971.53
2017-12-31T06:19:52.932Z,971.46
2017-12-31T06:20:52.853Z,971.56
2017-12-31T06:21:52.771Z,971.52
2017-12-31T06:22:52.693Z,971.51
2017-12-31T06:23:52.615Z,971.56
2017-12-31T06:24:52.564Z,971.57
2017-12-31T06:25:52.479Z,971.58
2017-12-31T06:26:52.384Z,971.54
2017-12-31T06:27:52.313Z,971.61
2017-12-31T06:28:52.243Z,971.62
2017-12-31T06:29:52.145Z,971.66
2017-12-31T06:30:52.096Z,971.65
2017-12-31T06:31:51.998Z,971.64
2017-12-31T06:32:51.929Z,971.67
2017-12-31T06:33:51.851Z,971.61
2017-12-31T06:34:51.763Z,971.66
2017-12-31T06:35:51.672Z,971.70
2017-12-31T06:36:51.607Z,971.63
2017-12-31T06:37:51.536Z,971.65
2017-12-31T06:38:51.442Z,971.65
2017-12-31T06:39:51.359Z,971.66
2017-12-31T06:40:51.282Z,971.72
2017-12-31T06:41:51.224Z,971.66
2017-12-31T06:42:51.129Z,971.65
2017-12-31T06:43:51.065Z,971.68
2017-12-31T06:44:50.981Z,971.67
2017-12-31T06:45:50.891Z,971.67
2017-12-31T06:46:50.830Z,971.65
2017-12-31T06:47:50.741Z,971.62
2017-12-31T06:48:50.674Z,971.66
2017-12-31T06:49:50.581Z,971.66
2017-12-31T06:50:50.513Z,971.61
2017-12-31T06:51:50.417Z,971.64
2017-12-31T06:52:50.358Z,971.62
2017-12-31T06:53:50.260Z,971.64
2017-12-31T06:54:50.213Z,971.61
2017-12-31T06:55:50.132Z,971.63
2017-12-31T06:56:50.039Z,971.67
2017-12-31T06:57:49.960Z,971.67
2017-12-31T06:58:49.896Z,971.68
2017-12-31T06:59:49.800Z,971.72
2017-12-31T07:00:49.746Z,971.72
2017-12-31T07:01:49.640Z,971.75
2017-12-31T07:02:49.567Z,971.80
2017-12-31T07:03:49.479Z,971.74
2017-12-31T07:04:49.415Z,971.73
2017-12-31T07:05:49.332Z,971.80
2017-12-31T07:06:49.255Z,971.74
2017-12-31T07:07:49.179Z,971.79
2017-12-31T07:08:49.124Z,971.76
2017-12-31T07:09:49.035Z,971.82
2017-12-31T07:10:48.979Z,971.74
2017-12-31T07:11:48.862Z,971.71
2017-12-31T07:12:48.790Z,971.75
2017-12-31T07:13:48.723Z,971.75
2017-12-31T07:14:48.636Z,971.76
2017-12-31T07:15:48.553Z,971.71
2017-12-31T07:16:48.483Z,971.77
2017-12-31T07:17:48.400Z,971.77
2017-12-31T07:18:48.339Z,971.72
2017-12-31T07:19:48.260Z,971.78
2017-12-31T07:20:48.158Z,971.75
2017-12-31T07:21:48.097Z,971.74
2017-12-31T07:22:48.010Z,971.75
2017-12-31T07:23:47.932Z,971.76
2017-12-31T07:24:47.859Z,971.77
2017-12-31T07:25:47.765Z,971.81
2017-12-31T07:26:47.705Z,971.79
2017-12-31T07:27:47.622Z,971.82
2017-12-31T07:28:47.545Z,971.88
2017-12-31T07:29:47.473Z,971.90
2017-12-31T07:30:47.391Z,971.90
2017-12-31T07:31:47.317Z,971.87
2017-12-31T07:32:47.234Z,971.92
2017-12-31T07:33:47.161Z,971.91
2017-12-31T07:34:47.099Z,971.94
2017-12-31T07:35:46.998Z,971.93
2017-12-31T07:36:46.918Z,971.95
2017-12-31T07:37:46.841Z,971.90
2017-12-31T07:38:46.752Z,972.00
2017-12-31T07:39:46.697Z,972.01
2017-12-31T07:40:46.629Z,972.04
2017-12-31T07:41:46.514Z,971.99
2017-12-31T07:42:47.093Z,972.03
2017-12-31T07:43:46.435Z,972.05
2017-12-31T07:44:46.347Z,972.04
2017-12-31T07:45:46.262Z,972.04
2017-12-31T07:46:46.157Z,972.01
2017-12-31T07:47:46.083Z,972.02
2017-12-31T07:48:45.974Z,972.03
2017-12-31T07:49:45.899Z,972.03
2017-12-31T07:50:45.843Z,972.05
2017-12-31T07:51:45.756Z,971.98
2017-12-31T07:52:45.666Z,972.01
2017-12-31T07:53:45.588Z,972.05
2017-12-31T07:54:45.500Z,971.99
2017-12-31T07:55:45.441Z,972.07
2017-12-31T07:56:45.349Z,972.00
2017-12-31T07:57:45.287Z,972.02
2017-12-31T07:58:45.193Z,972.04
2017-12-31T07:59:45.136Z,972.01
2017-12-31T08:00:45.035Z,972.07
2017-12-31T08:01:44.994Z,972.06
2017-12-31T08:02:44.891Z,972.07
2017-12-31T08:03:44.823Z,972.10
2017-12-31T08:04:44.737Z,972.11
2017-12-31T08:05:45.652Z,972.15
2017-12-31T08:06:44.586Z,972.18
2017-12-31T08:07:44.529Z,972.20
2017-12-31T08:08:44.434Z,972.18
2017-12-31T08:09:44.363Z,972.14
2017-12-31T08:10:44.271Z,972.12
2017-12-31T08:11:44.220Z,972.21
2017-12-31T08:12:44.137Z,972.20
2017-12-31T08:13:44.064Z,972.23
2017-12-31T08:14:43.988Z,972.18
2017-12-31T08:15:43.908Z,972.19
2017-12-31T08:16:43.824Z,972.20
2017-12-31T08:17:43.780Z,972.27
2017-12-31T08:18:43.695Z,972.22
2017-12-31T08:19:43.625Z,972.22
2017-12-31T08:20:43.591Z,972.23
2017-12-31T08:21:43.488Z,972.22
2017-12-31T08:22:43.372Z,972.22
2017-12-31T08:23:43.327Z,972.20
2017-12-31T08:24:43.237Z,972.16
2017-12-31T08:25:43.189Z,972.11
2017-12-31T08:26:43.099Z,972.14
2017-12-31T08:27:43.770Z,972.14
2017-12-31T08:28:42.957Z,972.12
2017-12-31T08:29:42.898Z,972.08
2017-12-31T08:30:42.807Z,972.15
2017-12-31T08:31:42.755Z,972.15
2017-12-31T08:32:42.713Z,972.21
2017-12-31T08:33:42.627Z,972.24
2017-12-31T08:34:42.520Z,972.23
2017-12-31T08:35:42.471Z,972.30
2017-12-31T08:36:42.397Z,972.31
2017-12-31T08:37:42.358Z,972.36
2017-12-31T08:38:42.282Z,972.32
2017-12-31T08:39:42.188Z,972.39
2017-12-31T08:40:42.124Z,972.43
2017-12-31T08:41:42.056Z,972.40
2017-12-31T08:42:41.988Z,972.44
2017-12-31T08:43:41.906Z,972.47
2017-12-31T08:44:41.909Z,972.54
2017-12-31T08:45:41.783Z,972.47
2017-12-31T08:46:41.817Z,972.56
2017-12-31T08:47:41.638Z,972.53
2017-12-31T08:48:41.615Z,972.53
2017-12-31T08:49:41.509Z,972.49
2017-12-31T08:50:41.553Z,972.50
2017-12-31T08:51:41.373Z,972.53
2017-12-31T08:52:41.362Z,972.48
2017-12-31T08:53:41.215Z,972.54
2017-12-31T08:54:41.252Z,972.51
2017-12-31T08:55:41.097Z,972.49
2017-12-31T08:56:41.072Z,972.52
2017-12-31T08:57:40.931Z,972.54
2017-12-31T08:58:40.976Z,972.54
2017-12-31T08:59:40.787Z,972.44
2017-12-31T09:00:40.788Z,972.51
2017-12-31T09:01:40.647Z,972.52
2017-12-31T09:02:40.604Z,972.54
2017-12-31T09:03:40.491Z,972.58
2017-12-31T09:04:40.494Z,972.61
2017-12-31T09:05:40.354Z,972.60
2017-12-31T09:06:40.311Z,972.56
2017-12-31T09:07:40.220Z,972.60
2017-12-31T09:08:40.142Z,972.53
2017-12-31T09:09:40.081Z,972.58
2017-12-31T09:10:40.024Z,972.54
2017-12-31T09:11:39.908Z,972.51
2017-12-31T09:12:39.934Z,972.46
2017-12-31T09:13:39.785Z,972.54
2017-12-31T09:14:39.744Z,972.48
2017-12-31T09:15:39.646Z,972.41
2017-12-31T09:16:39.660Z,972.44
2017-12-31T09:17:39.477Z,972.42
2017-12-31T09:18:39.468Z,972.53
2017-12-31T09:19:39.320Z,972.46
2017-12-31T09:20:39.337Z,972.46
2017-12-31T09:21:39.158Z,972.45
2017-12-31T09:22:39.253Z,972.43
2017-12-31T09:23:39.016Z,972.45
2017-12-31T09:24:39.170Z,972.40
2017-12-31T09:25:38.857Z,972.47
2017-12-31T09:26:38.803Z,972.46
2017-12-31T09:27:38.718Z,972.47
2017-12-31T09:28:38.713Z,972.51
2017-12-31T09:29:38.554Z,972.50
2017-12-31T09:30:38.534Z,972.45
2017-12-31T09:31:38.573Z,972.42
2017-12-31T09:32:38.326Z,972.44
2017-12-31T09:33:38.244Z,972.48
2017-12-31T09:34:38.233Z,972.39
2017-12-31T09:35:38.085Z,972.47
2017-12-31T09:36:39.026Z,972.50
2017-12-31T09:37:37.935Z,972.44
2017-12-31T09:38:37.962Z,972.44
2017-12-31T09:39:37.810Z,972.46
2017-12-31T09:40:37.780Z,972.35
2017-12-31T09:41:37.640Z,972.34
2017-12-31T09:42:37.595Z,972.34
2017-12-31T09:43:37.460Z,972.32
2017-12-31T09:44:37.400Z,972.26
2017-12-31T09:45:37.309Z,972.26
2017-12-31T09:46:37.240Z,972.34
2017-12-31T09:47:37.152Z,972.22
2017-12-31T09:48:37.101Z,972.24
2017-12-31T09:49:36.996Z,972.24
2017-12-31T09:50:37.018Z,972.29
2017-12-31T09:51:36.856Z,972.23
2017-12-31T09:52:36.837Z,972.24
2017-12-31T09:53:36.679Z,972.23
2017-12-31T09:54:36.652Z,972.30
2017-12-31T09:55:36.518Z,972.22
2017-12-31T09:56:36.539Z,972.24
2017-12-31T09:57:36.376Z,972.27
2017-12-31T09:58:36.297Z,972.31
2017-12-31T09:59:36.224Z,972.22
2017-12-31T10:00:36.154Z,972.23
2017-12-31T10:01:36.050Z,972.25
2017-12-31T10:02:36.061Z,972.22
2017-12-31T10:03:35.893Z,972.24
2017-12-31T10:04:35.846Z,972.27
2017-12-31T10:05:35.780Z,972.21
2017-12-31T10:06:35.663Z,972.24
2017-12-31T10:07:35.693Z,972.28
2017-12-31T10:08:35.525Z,972.21
2017-12-31T10:09:35.506Z,972.19
2017-12-31T10:10:35.345Z,972.19
2017-12-31T10:11:35.310Z,972.18
2017-12-31T10:12:35.190Z,972.19
2017-12-31T10:13:35.131Z,972.19
2017-12-31T10:14:35.026Z,972.17
2017-12-31T10:15:35.029Z,972.11
2017-12-31T10:16:34.868Z,972.12
2017-12-31T10:17:34.864Z,972.04
2017-12-31T10:18:34.716Z,972.08
2017-12-31T10:19:34.660Z,972.04
2017-12-31T10:20:34.551Z,972.01
2017-12-31T10:21:34.572Z,972.04
2017-12-31T10:22:34.401Z,972.03
2017-12-31T10:23:34.387Z,972.05
2017-12-31T10:24:34.234Z,972.01
2017-12-31T10:25:34.194Z,972.00
2017-12-31T10:26:34.073Z,971.91
2017-12-31T10:27:34.002Z,971.97
2017-12-31T10:28:33.984Z,971.98
2017-12-31T10:29:33.846Z,971.98
2017-12-31T10:30:33.800Z,971.96
2017-12-31T10:31:33.701Z,972.01
2017-12-31T10:32:33.723Z,971.93
2017-12-31T10:33:33.521Z,971.92
2017-12-31T10:34:33.518Z,971.89
2017-12-31T10:35:33.368Z,971.89
2017-12-31T10:36:33.314Z,971.89
2017-12-31T10:37:33.206Z,971.92
2017-12-31T10:38:33.235Z,971.87
2017-12-31T10:39:33.045Z,971.88
2017-12-31T10:40:33.052Z,971.84
2017-12-31T10:41:32.883Z,971.83
2017-12-31T10:42:32.852Z,971.87
2017-12-31T10:43:32.726Z,971.84
2017-12-31T10:44:32.656Z,971.83
2017-12-31T10:45:32.564Z,971.81
2017-12-31T10:46:32.564Z,971.81
2017-12-31T10:47:32.401Z,971.82
2017-12-31T10:48:32.378Z,971.80
2017-12-31T10:49:32.261Z,971.76
2017-12-31T10:50:32.183Z,971.82
2017-12-31T10:51:32.091Z,971.75
2017-12-31T10:52:32.104Z,971.74
2017-12-31T10:53:31.919Z,971.78
2017-12-31T10:54:31.916Z,971.79
2017-12-31T10:55:31.764Z,971.76
2017-12-31T10:56:31.725Z,971.79
2017-12-31T10:57:31.604Z,971.74
2017-12-31T10:58:31.638Z,971.69
2017-12-31T10:59:31.450Z,971.78
2017-12-31T11:00:31.429Z,971.83
2017-12-31T11:01:31.292Z,971.75
2017-12-31T11:02:31.234Z,971.78
2017-12-31T11:03:31.127Z,971.79
2017-12-31T11:04:31.146Z,971.78
2017-12-31T11:05:30.978Z,971.77
2017-12-31T11:06:30.968Z,971.79
2017-12-31T11:07:30.806Z,971.83
2017-12-31T11:08:30.765Z,971.76
2017-12-31T11:09:30.670Z,971.75
2017-12-31T11:10:30.676Z,971.74
2017-12-31T11:11:30.491Z,971.66
2017-12-31T11:12:30.491Z,971.77
2017-12-31T11:13:30.328Z,971.61
2017-12-31T11:14:30.292Z,971.64
2017-12-31T11:15:30.181Z,971.60
2017-12-31T11:16:30.197Z,971.63
2017-12-31T11:17:30.016Z,971.58
2017-12-31T11:18:30.019Z,971.58
2017-12-31T11:19:29.852Z,971.56
2017-12-31T11:20:29.821Z,971.56
2017-12-31T11:21:29.704Z,971.55
2017-12-31T11:22:29.728Z,971.49
2017-12-31T11:23:29.540Z,971.53
2017-12-31T11:24:29.542Z,971.43
2017-12-31T11:25:29.371Z,971.48
2017-12-31T11:26:29.361Z,971.48
2017-12-31T11:27:29.224Z,971.45
2017-12-31T11:28:29.150Z,971.46
2017-12-31T11:29:29.053Z,971.36
2017-12-31T11:30:28.988Z,971.30
2017-12-31T11:31:28.916Z,971.32
2017-12-31T11:32:28.880Z,971.31
2017-12-31T11:33:28.775Z,971.31
2017-12-31T11:34:28.663Z,971.28
2017-12-31T11:35:28.584Z,971.23
2017-12-31T11:36:28.594Z,971.26
2017-12-31T11:37:28.428Z,971.25
2017-12-31T11:38:28.406Z,971.26
2017-12-31T11:39:28.274Z,971.26
2017-12-31T11:40:28.210Z,971.20
2017-12-31T11:41:28.104Z,971.26
2017-12-31T11:42:28.135Z,971.14
2017-12-31T11:43:27.952Z,971.13
2017-12-31T11:44:27.934Z,971.17
2017-12-31T11:45:27.791Z,971.13
2017-12-31T11:46:27.743Z,971.16
2017-12-31T11:47:27.642Z,971.15
2017-12-31T11:48:27.697Z,971.07
2017-12-31T11:49:27.470Z,970.99
2017-12-31T11:50:27.460Z,971.05
2017-12-31T11:51:27.318Z,971.08
2017-12-31T11:52:27.263Z,971.07
2017-12-31T11:53:27.167Z,971.11
2017-12-31T11:54:27.181Z,971.01
2017-12-31T11:55:27.004Z,971.09
2017-12-31T11:56:26.913Z,971.06
2017-12-31T11:57:26.838Z,971.04
2017-12-31T11:58:26.793Z,971.02
2017-12-31T11:59:26.700Z,970.95
2017-12-31T12:00:26.701Z,971.03
2017-12-31T12:01:26.522Z,970.97
2017-12-31T12:02:26.510Z,971.01
2017-12-31T12:03:26.368Z,970.96
2017-12-31T12:04:26.319Z,971.03
2017-12-31T12:05:26.202Z,970.96
2017-12-31T12:06:26.242Z,970.96
2017-12-31T12:07:26.048Z,970.90
2017-12-31T12:08:25.968Z,970.90
2017-12-31T12:09:25.887Z,970.97
2017-12-31T12:10:25.854Z,970.92
2017-12-31T12:11:25.729Z,970.94
2017-12-31T12:12:25.664Z,970.96
2017-12-31T12:13:25.557Z,970.93
2017-12-31T12:14:25.566Z,970.91
2017-12-31T12:15:25.404Z,970.92
2017-12-31T12:16:25.393Z,970.91
2017-12-31T12:17:25.245Z,970.85
2017-12-31T12:18:25.199Z,970.88
2017-12-31T12:19:25.096Z,970.89
2017-12-31T12:20:25.106Z,970.88
2017-12-31T12:21:24.920Z,970.89
2017-12-31T12:22:24.918Z,970.82
2017-12-31T12:23:24.755Z,970.76
2017-12-31T12:24:24.729Z,970.74
2017-12-31T12:25:24.590Z,970.80
2017-12-31T12:26:24.621Z,970.82
2017-12-31T12:27:24.430Z,970.76